KATY/ATY METAR and TAF weather

Enter ICAO airport designator
Station Type Date Time Source
KATY METAR 2020/01/22 21:06 UTC NOAA

KATY 222106Z AUTO 21003KT 7SM BKN008 BKN100 01/00 A2973 RMK AO2 T00110000


Station Type Date Time Source
KATY Decoded METAR 2020/01/22 21:06 UTC NOAA

WATERTOWN MUNICIPAL AIRPORT, SD, United States (KATY) 44-54N 097-09W 532M
Jan 22, 2020 - 04:06 PM EST / 2020.01.22 2106 UTC
Wind: from the SSW (210 degrees) at 3 MPH (3 KT):0
Visibility: 7 mile(s):0
Sky conditions: mostly cloudy
Temperature: 34.0 F (1.1 C)
Dew Point: 32.0 F (0.0 C)
Relative Humidity: 92%
Pressure (altimeter): 29.73 in. Hg (1006 hPa)
ob: KATY 222106Z AUTO 21003KT 7SM BKN008 BKN100 01/00 A2973 RMK AO2 T00110000
cycle: 21

Station Type Date Time Source
KATY TAF 2020/01/22 20:24 UTC NOAA

TAF
AMD KATY 222020Z 2220/2318 VRB03KT 6SM BR SCT005 OVC090
FM222300 00000KT 2SM BR SCT004 OVC022
FM230100 00000KT 1 1/2SM BR OVC004
FM230600 34006KT 1/2SM FZFG OVC003
FM230900 35007KT 2SM BR OVC011
FM231600 36010KT 5SM BR OVC004

Example: see airport list